sensor_id;sensor_type;location;lat;lon;timestamp;temperature;humidity
41533;DHT22;27262;-35.248;149.138;2022-09-27T00:00:34;19.40;64.40
41533;DHT22;27262;-35.248;149.138;2022-09-27T00:03:04;19.40;64.30
41533;DHT22;27262;-35.248;149.138;2022-09-27T00:05:35;19.40;64.20
41533;DHT22;27262;-35.248;149.138;2022-09-27T00:08:05;19.40;64.30
41533;DHT22;27262;-35.248;149.138;2022-09-27T00:10:36;19.40;64.10
41533;DHT22;27262;-35.248;149.138;2022-09-27T00:13:06;19.50;64.00
41533;DHT22;27262;-35.248;149.138;2022-09-27T00:15:36;19.50;64.30
41533;DHT22;27262;-35.248;149.138;2022-09-27T00:18:06;19.50;64.10
41533;DHT22;27262;-35.248;149.138;2022-09-27T00:20:38;19.50;64.10
41533;DHT22;27262;-35.248;149.138;2022-09-27T00:23:08;19.50;64.20
41533;DHT22;27262;-35.248;149.138;2022-09-27T00:25:38;19.60;64.10
41533;DHT22;27262;-35.248;149.138;2022-09-27T00:28:08;19.60;64.20
41533;DHT22;27262;-35.248;149.138;2022-09-27T00:30:41;19.60;64.10
41533;DHT22;27262;-35.248;149.138;2022-09-27T00:33:11;19.60;64.00
41533;DHT22;27262;-35.248;149.138;2022-09-27T00:35:42;19.60;64.10
41533;DHT22;27262;-35.248;149.138;2022-09-27T00:38:12;19.60;64.10
41533;DHT22;27262;-35.248;149.138;2022-09-27T00:40:43;19.60;64.00
41533;DHT22;27262;-35.248;149.138;2022-09-27T00:43:23;19.70;64.20
41533;DHT22;27262;-35.248;149.138;2022-09-27T00:45:59;19.70;64.00
41533;DHT22;27262;-35.248;149.138;2022-09-27T00:48:34;19.70;64.10
41533;DHT22;27262;-35.248;149.138;2022-09-27T00:51:06;19.70;64.10
41533;DHT22;27262;-35.248;149.138;2022-09-27T00:53:41;19.70;64.00
41533;DHT22;27262;-35.248;149.138;2022-09-27T00:56:21;19.70;64.00
41533;DHT22;27262;-35.248;149.138;2022-09-27T00:59:07;19.80;64.00
41533;DHT22;27262;-35.248;149.138;2022-09-27T01:01:40;19.80;64.10
41533;DHT22;27262;-35.248;149.138;2022-09-27T01:04:12;19.80;64.10
41533;DHT22;27262;-35.248;149.138;2022-09-27T01:06:45;19.80;64.00
41533;DHT22;27262;-35.248;149.138;2022-09-27T01:09:15;19.80;64.00
41533;DHT22;27262;-35.248;149.138;2022-09-27T01:23:03;19.90;64.00
41533;DHT22;27262;-35.248;149.138;2022-09-27T01:37:44;19.90;63.90
41533;DHT22;27262;-35.248;149.138;2022-09-27T01:40:38;19.90;64.00
41533;DHT22;27262;-35.248;149.138;2022-09-27T01:43:20;19.90;63.90
41533;DHT22;27262;-35.248;149.138;2022-09-27T01:46:00;19.90;64.00
41533;DHT22;27262;-35.248;149.138;2022-09-27T01:48:37;20.00;63.90
41533;DHT22;27262;-35.248;149.138;2022-09-27T01:51:24;19.90;63.90
41533;DHT22;27262;-35.248;149.138;2022-09-27T01:54:01;20.00;63.90
41533;DHT22;27262;-35.248;149.138;2022-09-27T01:56:39;20.00;63.90
41533;DHT22;27262;-35.248;149.138;2022-09-27T01:59:22;20.00;63.90
41533;DHT22;27262;-35.248;149.138;2022-09-27T02:02:02;20.00;63.80
41533;DHT22;27262;-35.248;149.138;2022-09-27T02:04:37;20.00;63.80
41533;DHT22;27262;-35.248;149.138;2022-09-27T02:07:14;20.10;63.80
41533;DHT22;27262;-35.248;149.138;2022-09-27T02:10:22;20.10;64.50
41533;DHT22;27262;-35.248;149.138;2022-09-27T02:15:51;20.10;63.60
41533;DHT22;27262;-35.248;149.138;2022-09-27T02:18:31;20.10;63.60
41533;DHT22;27262;-35.248;149.138;2022-09-27T02:21:05;20.10;63.60
41533;DHT22;27262;-35.248;149.138;2022-09-27T02:23:42;20.10;63.60
41533;DHT22;27262;-35.248;149.138;2022-09-27T02:26:23;20.10;63.60
41533;DHT22;27262;-35.248;149.138;2022-09-27T02:28:59;20.10;63.70
41533;DHT22;27262;-35.248;149.138;2022-09-27T02:31:34;20.10;63.80
41533;DHT22;27262;-35.248;149.138;2022-09-27T02:34:28;20.20;63.90
41533;DHT22;27262;-35.248;149.138;2022-09-27T02:37:00;20.20;63.90
41533;DHT22;27262;-35.248;149.138;2022-09-27T02:39:30;20.20;64.20
41533;DHT22;27262;-35.248;149.138;2022-09-27T02:42:01;20.20;64.10
41533;DHT22;27262;-35.248;149.138;2022-09-27T02:44:32;20.20;64.10
41533;DHT22;27262;-35.248;149.138;2022-09-27T02:50:32;20.20;63.80
41533;DHT22;27262;-35.248;149.138;2022-09-27T02:53:30;20.20;63.90
41533;DHT22;27262;-35.248;149.138;2022-09-27T02:56:24;20.20;63.80
41533;DHT22;27262;-35.248;149.138;2022-09-27T02:59:17;20.30;64.10
41533;DHT22;27262;-35.248;149.138;2022-09-27T03:04:31;20.20;63.90
41533;DHT22;27262;-35.248;149.138;2022-09-27T03:07:03;20.20;64.00
41533;DHT22;27262;-35.248;149.138;2022-09-27T03:09:50;20.30;64.20
41533;DHT22;27262;-35.248;149.138;2022-09-27T03:12:21;20.30;64.00
41533;DHT22;27262;-35.248;149.138;2022-09-27T03:14:58;20.30;64.10
41533;DHT22;27262;-35.248;149.138;2022-09-27T03:17:29;20.30;64.20
41533;DHT22;27262;-35.248;149.138;2022-09-27T03:19:59;20.40;64.30
41533;DHT22;27262;-35.248;149.138;2022-09-27T03:22:29;20.40;64.20
41533;DHT22;27262;-35.248;149.138;2022-09-27T03:25:00;20.40;64.10
41533;DHT22;27262;-35.248;149.138;2022-09-27T03:27:30;20.30;63.90
41533;DHT22;27262;-35.248;149.138;2022-09-27T03:30:01;20.40;64.00
41533;DHT22;27262;-35.248;149.138;2022-09-27T03:32:31;20.30;63.70
41533;DHT22;27262;-35.248;149.138;2022-09-27T03:35:02;20.40;63.60
41533;DHT22;27262;-35.248;149.138;2022-09-27T03:37:32;20.40;63.80
41533;DHT22;27262;-35.248;149.138;2022-09-27T03:40:03;20.40;63.60
41533;DHT22;27262;-35.248;149.138;2022-09-27T03:42:33;20.40;63.70
41533;DHT22;27262;-35.248;149.138;2022-09-27T03:45:04;20.40;63.60
41533;DHT22;27262;-35.248;149.138;2022-09-27T03:47:34;20.40;63.70
41533;DHT22;27262;-35.248;149.138;2022-09-27T03:50:09;20.40;63.80
41533;DHT22;27262;-35.248;149.138;2022-09-27T03:52:42;20.40;64.00
41533;DHT22;27262;-35.248;149.138;2022-09-27T03:55:13;20.40;63.90
41533;DHT22;27262;-35.248;149.138;2022-09-27T03:57:46;20.40;64.10
41533;DHT22;27262;-35.248;149.138;2022-09-27T04:00:16;20.50;64.10
41533;DHT22;27262;-35.248;149.138;2022-09-27T04:02:47;20.40;64.10
41533;DHT22;27262;-35.248;149.138;2022-09-27T04:05:17;20.50;64.20
41533;DHT22;27262;-35.248;149.138;2022-09-27T04:07:48;20.50;63.80
41533;DHT22;27262;-35.248;149.138;2022-09-27T04:10:18;20.50;63.60
41533;DHT22;27262;-35.248;149.138;2022-09-27T04:12:49;20.50;64.10
41533;DHT22;27262;-35.248;149.138;2022-09-27T04:15:19;20.50;64.00
41533;DHT22;27262;-35.248;149.138;2022-09-27T04:17:50;20.50;64.10
41533;DHT22;27262;-35.248;149.138;2022-09-27T04:20:21;20.50;64.00
41533;DHT22;27262;-35.248;149.138;2022-09-27T04:22:51;20.50;63.90
41533;DHT22;27262;-35.248;149.138;2022-09-27T04:25:21;20.50;64.10
41533;DHT22;27262;-35.248;149.138;2022-09-27T04:27:51;20.50;64.20
41533;DHT22;27262;-35.248;149.138;2022-09-27T04:30:23;20.60;64.20
41533;DHT22;27262;-35.248;149.138;2022-09-27T04:32:54;20.60;64.20
41533;DHT22;27262;-35.248;149.138;2022-09-27T04:35:24;20.60;64.30
41533;DHT22;27262;-35.248;149.138;2022-09-27T04:38:13;20.60;64.30
41533;DHT22;27262;-35.248;149.138;2022-09-27T04:40:43;20.60;64.20
41533;DHT22;27262;-35.248;149.138;2022-09-27T04:43:13;20.60;63.80
41533;DHT22;27262;-35.248;149.138;2022-09-27T04:45:44;20.60;64.30
41533;DHT22;27262;-35.248;149.138;2022-09-27T04:48:14;20.60;64.20
41533;DHT22;27262;-35.248;149.138;2022-09-27T04:50:44;20.60;64.00
41533;DHT22;27262;-35.248;149.138;2022-09-27T04:53:15;20.60;63.70
41533;DHT22;27262;-35.248;149.138;2022-09-27T04:55:49;20.60;64.00
41533;DHT22;27262;-35.248;149.138;2022-09-27T04:58:21;20.60;63.90
41533;DHT22;27262;-35.248;149.138;2022-09-27T05:00:52;20.60;63.80
41533;DHT22;27262;-35.248;149.138;2022-09-27T05:03:24;20.60;64.00
41533;DHT22;27262;-35.248;149.138;2022-09-27T05:05:54;20.70;64.20
41533;DHT22;27262;-35.248;149.138;2022-09-27T05:08:25;20.70;63.90
41533;DHT22;27262;-35.248;149.138;2022-09-27T05:10:55;20.70;64.60
41533;DHT22;27262;-35.248;149.138;2022-09-27T05:13:26;20.70;64.10
41533;DHT22;27262;-35.248;149.138;2022-09-27T05:16:02;20.70;64.10
41533;DHT22;27262;-35.248;149.138;2022-09-27T05:18:32;20.70;63.80
41533;DHT22;27262;-35.248;149.138;2022-09-27T05:21:03;20.70;63.60
41533;DHT22;27262;-35.248;149.138;2022-09-27T05:23:33;20.70;64.00
41533;DHT22;27262;-35.248;149.138;2022-09-27T05:26:07;20.70;63.90
41533;DHT22;27262;-35.248;149.138;2022-09-27T05:28:37;20.70;63.50
41533;DHT22;27262;-35.248;149.138;2022-09-27T05:31:07;20.70;63.50
41533;DHT22;27262;-35.248;149.138;2022-09-27T05:33:37;20.70;63.90
41533;DHT22;27262;-35.248;149.138;2022-09-27T05:36:08;20.70;63.80
41533;DHT22;27262;-35.248;149.138;2022-09-27T05:38:38;20.70;63.60
41533;DHT22;27262;-35.248;149.138;2022-09-27T05:41:10;20.70;63.60
41533;DHT22;27262;-35.248;149.138;2022-09-27T05:43:40;20.70;63.80
41533;DHT22;27262;-35.248;149.138;2022-09-27T05:46:10;20.80;63.80
41533;DHT22;27262;-35.248;149.138;2022-09-27T05:48:41;20.80;63.80
41533;DHT22;27262;-35.248;149.138;2022-09-27T05:51:11;20.80;63.60
41533;DHT22;27262;-35.248;149.138;2022-09-27T05:53:42;20.80;64.40
41533;DHT22;27262;-35.248;149.138;2022-09-27T05:56:12;20.80;63.60
41533;DHT22;27262;-35.248;149.138;2022-09-27T05:58:43;20.80;63.60
41533;DHT22;27262;-35.248;149.138;2022-09-27T06:01:13;20.80;63.40
41533;DHT22;27262;-35.248;149.138;2022-09-27T06:03:44;20.80;63.50
41533;DHT22;27262;-35.248;149.138;2022-09-27T06:06:15;20.80;63.40
41533;DHT22;27262;-35.248;149.138;2022-09-27T06:08:45;20.80;63.30
41533;DHT22;27262;-35.248;149.138;2022-09-27T06:11:17;20.80;63.20
41533;DHT22;27262;-35.248;149.138;2022-09-27T06:13:47;20.80;63.30
41533;DHT22;27262;-35.248;149.138;2022-09-27T06:16:18;20.80;63.20
41533;DHT22;27262;-35.248;149.138;2022-09-27T06:18:48;20.80;63.40
41533;DHT22;27262;-35.248;149.138;2022-09-27T06:21:19;20.90;63.50
41533;DHT22;27262;-35.248;149.138;2022-09-27T06:23:49;20.90;63.50
41533;DHT22;27262;-35.248;149.138;2022-09-27T06:26:21;20.90;63.50
41533;DHT22;27262;-35.248;149.138;2022-09-27T06:28:51;20.90;63.50
41533;DHT22;27262;-35.248;149.138;2022-09-27T06:31:22;20.90;63.50
41533;DHT22;27262;-35.248;149.138;2022-09-27T06:33:52;20.90;63.40
41533;DHT22;27262;-35.248;149.138;2022-09-27T06:36:22;20.90;63.50
41533;DHT22;27262;-35.248;149.138;2022-09-27T06:38:52;20.90;63.50
41533;DHT22;27262;-35.248;149.138;2022-09-27T06:41:22;20.90;63.20
41533;DHT22;27262;-35.248;149.138;2022-09-27T06:43:52;20.90;63.20
41533;DHT22;27262;-35.248;149.138;2022-09-27T06:46:22;20.90;63.30
41533;DHT22;27262;-35.248;149.138;2022-09-27T06:48:53;20.90;63.20
41533;DHT22;27262;-35.248;149.138;2022-09-27T06:51:23;20.90;63.10
41533;DHT22;27262;-35.248;149.138;2022-09-27T06:53:54;20.80;63.00
41533;DHT22;27262;-35.248;149.138;2022-09-27T06:56:24;20.80;63.10
41533;DHT22;27262;-35.248;149.138;2022-09-27T06:58:54;20.90;63.30
41533;DHT22;27262;-35.248;149.138;2022-09-27T07:01:43;20.90;63.40
41533;DHT22;27262;-35.248;149.138;2022-09-27T07:04:14;20.90;63.50
41533;DHT22;27262;-35.248;149.138;2022-09-27T07:06:44;20.90;63.40
41533;DHT22;27262;-35.248;149.138;2022-09-27T07:09:15;20.90;63.30
41533;DHT22;27262;-35.248;149.138;2022-09-27T07:11:45;20.90;63.20
41533;DHT22;27262;-35.248;149.138;2022-09-27T07:14:16;20.90;63.10
41533;DHT22;27262;-35.248;149.138;2022-09-27T07:16:46;20.90;63.10
41533;DHT22;27262;-35.248;149.138;2022-09-27T07:19:16;20.90;62.90
41533;DHT22;27262;-35.248;149.138;2022-09-27T07:21:46;20.90;62.90
41533;DHT22;27262;-35.248;149.138;2022-09-27T07:24:16;20.80;62.80
41533;DHT22;27262;-35.248;149.138;2022-09-27T07:26:47;20.80;62.80
41533;DHT22;27262;-35.248;149.138;2022-09-27T07:29:17;20.80;62.80
41533;DHT22;27262;-35.248;149.138;2022-09-27T07:31:47;20.80;62.70
41533;DHT22;27262;-35.248;149.138;2022-09-27T07:34:17;20.90;62.70
41533;DHT22;27262;-35.248;149.138;2022-09-27T07:36:48;20.80;62.80
41533;DHT22;27262;-35.248;149.138;2022-09-27T07:39:18;20.80;62.80
41533;DHT22;27262;-35.248;149.138;2022-09-27T07:41:50;20.80;62.80
41533;DHT22;27262;-35.248;149.138;2022-09-27T07:44:21;20.80;62.70
41533;DHT22;27262;-35.248;149.138;2022-09-27T07:46:51;20.80;62.80
41533;DHT22;27262;-35.248;149.138;2022-09-27T07:49:21;20.80;62.70
41533;DHT22;27262;-35.248;149.138;2022-09-27T07:51:51;20.80;62.70
41533;DHT22;27262;-35.248;149.138;2022-09-27T07:54:21;20.80;62.70
41533;DHT22;27262;-35.248;149.138;2022-09-27T07:56:52;20.80;62.80
41533;DHT22;27262;-35.248;149.138;2022-09-27T07:59:24;20.80;62.70
41533;DHT22;27262;-35.248;149.138;2022-09-27T08:01:55;20.80;62.80
41533;DHT22;27262;-35.248;149.138;2022-09-27T08:04:25;20.80;62.70
41533;DHT22;27262;-35.248;149.138;2022-09-27T08:06:55;20.80;62.80
41533;DHT22;27262;-35.248;149.138;2022-09-27T08:09:26;20.80;62.80
41533;DHT22;27262;-35.248;149.138;2022-09-27T08:11:57;20.80;62.80
41533;DHT22;27262;-35.248;149.138;2022-09-27T08:14:27;20.80;62.70
41533;DHT22;27262;-35.248;149.138;2022-09-27T08:16:58;20.80;62.70
41533;DHT22;27262;-35.248;149.138;2022-09-27T08:19:29;20.80;62.80
41533;DHT22;27262;-35.248;149.138;2022-09-27T08:21:59;20.80;62.90
41533;DHT22;27262;-35.248;149.138;2022-09-27T08:24:29;20.80;62.80
41533;DHT22;27262;-35.248;149.138;2022-09-27T08:27:04;20.80;62.90
41533;DHT22;27262;-35.248;149.138;2022-09-27T08:29:39;20.80;62.80
41533;DHT22;27262;-35.248;149.138;2022-09-27T08:32:10;20.80;62.90
41533;DHT22;27262;-35.248;149.138;2022-09-27T08:34:43;20.80;63.60
41533;DHT22;27262;-35.248;149.138;2022-09-27T08:37:14;20.80;62.90
41533;DHT22;27262;-35.248;149.138;2022-09-27T08:39:44;20.70;62.90
41533;DHT22;27262;-35.248;149.138;2022-09-27T08:42:39;20.70;62.90
41533;DHT22;27262;-35.248;149.138;2022-09-27T08:45:33;20.80;62.80
41533;DHT22;27262;-35.248;149.138;2022-09-27T08:48:09;20.80;62.70
41533;DHT22;27262;-35.248;149.138;2022-09-27T08:50:45;20.70;62.90
41533;DHT22;27262;-35.248;149.138;2022-09-27T08:53:47;20.70;62.90
41533;DHT22;27262;-35.248;149.138;2022-09-27T08:56:20;20.80;62.70
41533;DHT22;27262;-35.248;149.138;2022-09-27T09:01:43;20.70;62.70
41533;DHT22;27262;-35.248;149.138;2022-09-27T09:04:26;20.70;63.00
41533;DHT22;27262;-35.248;149.138;2022-09-27T09:13:44;20.70;62.80
41533;DHT22;27262;-35.248;149.138;2022-09-27T09:16:26;20.70;63.50
41533;DHT22;27262;-35.248;149.138;2022-09-27T09:27:02;20.70;63.80
41533;DHT22;27262;-35.248;149.138;2022-09-27T09:35:01;20.80;63.70
41533;DHT22;27262;-35.248;149.138;2022-09-27T09:37:48;20.70;63.50
41533;DHT22;27262;-35.248;149.138;2022-09-27T09:43:13;20.70;64.00
41533;DHT22;27262;-35.248;149.138;2022-09-27T09:45:57;20.70;63.70
41533;DHT22;27262;-35.248;149.138;2022-09-27T09:51:46;20.70;63.10
41533;DHT22;27262;-35.248;149.138;2022-09-27T09:54:41;20.80;63.80
41533;DHT22;27262;-35.248;149.138;2022-09-27T09:57:27;20.80;63.70
41533;DHT22;27262;-35.248;149.138;2022-09-27T10:00:16;20.70;64.00
41533;DHT22;27262;-35.248;149.138;2022-09-27T10:02:48;20.80;63.90
41533;DHT22;27262;-35.248;149.138;2022-09-27T10:05:21;20.70;63.80
41533;DHT22;27262;-35.248;149.138;2022-09-27T10:07:54;20.70;63.70
41533;DHT22;27262;-35.248;149.138;2022-09-27T10:10:26;20.70;64.00
41533;DHT22;27262;-35.248;149.138;2022-09-27T10:12:58;20.70;63.70
41533;DHT22;27262;-35.248;149.138;2022-09-27T10:15:31;20.70;64.00
41533;DHT22;27262;-35.248;149.138;2022-09-27T10:18:02;20.70;63.70
41533;DHT22;27262;-35.248;149.138;2022-09-27T10:23:17;20.70;63.90
41533;DHT22;27262;-35.248;149.138;2022-09-27T10:25:58;20.70;63.20
41533;DHT22;27262;-35.248;149.138;2022-09-27T10:28:32;20.70;63.80
41533;DHT22;27262;-35.248;149.138;2022-09-27T10:31:12;20.70;63.60
41533;DHT22;27262;-35.248;149.138;2022-09-27T10:34:02;20.70;63.50
41533;DHT22;27262;-35.248;149.138;2022-09-27T10:36:36;20.70;63.70
41533;DHT22;27262;-35.248;149.138;2022-09-27T10:39:21;20.70;63.50
41533;DHT22;27262;-35.248;149.138;2022-09-27T10:41:52;20.70;63.90
41533;DHT22;27262;-35.248;149.138;2022-09-27T10:44:28;20.70;63.50
41533;DHT22;27262;-35.248;149.138;2022-09-27T10:47:07;20.70;63.40
41533;DHT22;27262;-35.248;149.138;2022-09-27T10:49:39;20.70;63.80
41533;DHT22;27262;-35.248;149.138;2022-09-27T10:52:23;20.70;63.50
41533;DHT22;27262;-35.248;149.138;2022-09-27T10:54:59;20.70;63.90
41533;DHT22;27262;-35.248;149.138;2022-09-27T10:57:31;20.70;63.30
41533;DHT22;27262;-35.248;149.138;2022-09-27T11:00:23;20.70;63.70
41533;DHT22;27262;-35.248;149.138;2022-09-27T11:02:59;20.70;63.10
41533;DHT22;27262;-35.248;149.138;2022-09-27T11:05:33;20.70;63.40
41533;DHT22;27262;-35.248;149.138;2022-09-27T11:14:17;20.70;63.70
41533;DHT22;27262;-35.248;149.138;2022-09-27T11:22:45;20.60;63.50
41533;DHT22;27262;-35.248;149.138;2022-09-27T12:10:20;20.50;63.40
41533;DHT22;27262;-35.248;149.138;2022-09-27T12:12:53;20.50;63.40
41533;DHT22;27262;-35.248;149.138;2022-09-27T12:15:35;20.50;63.50
41533;DHT22;27262;-35.248;149.138;2022-09-27T12:18:34;20.50;64.40
41533;DHT22;27262;-35.248;149.138;2022-09-27T12:21:09;20.50;63.60
41533;DHT22;27262;-35.248;149.138;2022-09-27T12:26:22;20.40;63.80
41533;DHT22;27262;-35.248;149.138;2022-09-27T12:37:19;20.40;63.90
41533;DHT22;27262;-35.248;149.138;2022-09-27T12:39:59;20.40;63.80
41533;DHT22;27262;-35.248;149.138;2022-09-27T12:42:46;20.40;63.80
41533;DHT22;27262;-35.248;149.138;2022-09-27T12:51:10;20.30;63.60
41533;DHT22;27262;-35.248;149.138;2022-09-27T12:53:58;20.30;63.50
41533;DHT22;27262;-35.248;149.138;2022-09-27T12:59:44;20.30;63.40
41533;DHT22;27262;-35.248;149.138;2022-09-27T13:08:49;20.30;63.40
41533;DHT22;27262;-35.248;149.138;2022-09-27T13:13:37;20.30;63.60
41533;DHT22;27262;-35.248;149.138;2022-09-27T13:16:09;20.20;63.60
41533;DHT22;27262;-35.248;149.138;2022-09-27T13:27:36;20.20;63.40
41533;DHT22;27262;-35.248;149.138;2022-09-27T13:38:36;20.20;63.50
41533;DHT22;27262;-35.248;149.138;2022-09-27T13:41:17;20.10;63.60
41533;DHT22;27262;-35.248;149.138;2022-09-27T13:52:15;20.10;63.60
41533;DHT22;27262;-35.248;149.138;2022-09-27T13:54:53;20.10;63.60
41533;DHT22;27262;-35.248;149.138;2022-09-27T14:00:19;20.10;63.50
41533;DHT22;27262;-35.248;149.138;2022-09-27T14:06:04;20.00;63.60
41533;DHT22;27262;-35.248;149.138;2022-09-27T14:08:57;20.00;63.50
41533;DHT22;27262;-35.248;149.138;2022-09-27T14:11:39;20.00;63.60
41533;DHT22;27262;-35.248;149.138;2022-09-27T14:14:16;20.00;63.70
41533;DHT22;27262;-35.248;149.138;2022-09-27T14:16:48;20.00;63.70
41533;DHT22;27262;-35.248;149.138;2022-09-27T14:19:20;20.00;63.70
41533;DHT22;27262;-35.248;149.138;2022-09-27T14:21:52;20.00;63.70
41533;DHT22;27262;-35.248;149.138;2022-09-27T14:24:44;20.00;63.70
41533;DHT22;27262;-35.248;149.138;2022-09-27T14:27:27;20.00;63.60
41533;DHT22;27262;-35.248;149.138;2022-09-27T14:30:13;19.90;63.60
41533;DHT22;27262;-35.248;149.138;2022-09-27T14:32:51;19.90;63.60
41533;DHT22;27262;-35.248;149.138;2022-09-27T14:35:31;19.90;63.70
41533;DHT22;27262;-35.248;149.138;2022-09-27T14:38:21;19.90;63.70
41533;DHT22;27262;-35.248;149.138;2022-09-27T14:41:07;19.90;63.70
41533;DHT22;27262;-35.248;149.138;2022-09-27T14:43:42;19.90;63.80
41533;DHT22;27262;-35.248;149.138;2022-09-27T14:46:28;19.90;63.70
41533;DHT22;27262;-35.248;149.138;2022-09-27T14:49:20;19.90;63.60
41533;DHT22;27262;-35.248;149.138;2022-09-27T14:51:55;19.90;63.60
41533;DHT22;27262;-35.248;149.138;2022-09-27T14:54:28;19.90;63.70
41533;DHT22;27262;-35.248;149.138;2022-09-27T14:57:01;19.80;63.80
41533;DHT22;27262;-35.248;149.138;2022-09-27T14:59:34;19.80;63.70
41533;DHT22;27262;-35.248;149.138;2022-09-27T15:02:16;19.80;63.70
41533;DHT22;27262;-35.248;149.138;2022-09-27T15:04:49;19.80;63.60
41533;DHT22;27262;-35.248;149.138;2022-09-27T15:07:20;19.80;63.70
41533;DHT22;27262;-35.248;149.138;2022-09-27T15:09:51;19.80;63.60
41533;DHT22;27262;-35.248;149.138;2022-09-27T15:12:24;19.80;63.60
41533;DHT22;27262;-35.248;149.138;2022-09-27T15:14:55;19.80;63.60
41533;DHT22;27262;-35.248;149.138;2022-09-27T15:17:26;19.70;63.60
41533;DHT22;27262;-35.248;149.138;2022-09-27T15:20:03;19.70;63.60
41533;DHT22;27262;-35.248;149.138;2022-09-27T15:22:47;19.80;63.60
41533;DHT22;27262;-35.248;149.138;2022-09-27T15:25:19;19.70;63.70
41533;DHT22;27262;-35.248;149.138;2022-09-27T15:27:54;19.70;63.60
41533;DHT22;27262;-35.248;149.138;2022-09-27T15:30:35;19.70;63.60
41533;DHT22;27262;-35.248;149.138;2022-09-27T15:33:17;19.70;63.60
41533;DHT22;27262;-35.248;149.138;2022-09-27T15:36:08;19.70;63.60
41533;DHT22;27262;-35.248;149.138;2022-09-27T15:38:44;19.70;63.50
41533;DHT22;27262;-35.248;149.138;2022-09-27T15:41:17;19.70;63.60
41533;DHT22;27262;-35.248;149.138;2022-09-27T15:43:50;19.70;63.70
41533;DHT22;27262;-35.248;149.138;2022-09-27T15:46:36;19.60;63.60
41533;DHT22;27262;-35.248;149.138;2022-09-27T15:49:28;19.60;63.50
41533;DHT22;27262;-35.248;149.138;2022-09-27T15:52:01;19.60;63.50
41533;DHT22;27262;-35.248;149.138;2022-09-27T15:54:31;19.60;63.60
41533;DHT22;27262;-35.248;149.138;2022-09-27T15:57:05;19.60;63.70
41533;DHT22;27262;-35.248;149.138;2022-09-27T15:59:35;19.60;63.60
41533;DHT22;27262;-35.248;149.138;2022-09-27T16:02:14;19.60;63.70
41533;DHT22;27262;-35.248;149.138;2022-09-27T16:04:45;19.60;63.60
41533;DHT22;27262;-35.248;149.138;2022-09-27T16:07:16;19.50;63.60
41533;DHT22;27262;-35.248;149.138;2022-09-27T16:09:46;19.50;63.60
41533;DHT22;27262;-35.248;149.138;2022-09-27T16:12:19;19.50;63.60
41533;DHT22;27262;-35.248;149.138;2022-09-27T16:14:49;19.50;64.40
41533;DHT22;27262;-35.248;149.138;2022-09-27T16:17:19;19.50;63.60
41533;DHT22;27262;-35.248;149.138;2022-09-27T16:19:49;19.50;63.60
41533;DHT22;27262;-35.248;149.138;2022-09-27T16:22:20;19.50;63.60
41533;DHT22;27262;-35.248;149.138;2022-09-27T16:24:50;19.50;63.70
41533;DHT22;27262;-35.248;149.138;2022-09-27T16:27:30;19.50;63.70
41533;DHT22;27262;-35.248;149.138;2022-09-27T16:30:01;19.50;63.60
41533;DHT22;27262;-35.248;149.138;2022-09-27T16:32:31;19.40;63.70
41533;DHT22;27262;-35.248;149.138;2022-09-27T16:35:02;19.40;63.70
41533;DHT22;27262;-35.248;149.138;2022-09-27T16:37:33;19.40;63.70
41533;DHT22;27262;-35.248;149.138;2022-09-27T16:40:05;19.40;64.40
41533;DHT22;27262;-35.248;149.138;2022-09-27T16:42:37;19.40;63.70
41533;DHT22;27262;-35.248;149.138;2022-09-27T16:45:08;19.40;63.70
41533;DHT22;27262;-35.248;149.138;2022-09-27T16:47:45;19.40;63.80
41533;DHT22;27262;-35.248;149.138;2022-09-27T16:50:15;19.40;63.70
41533;DHT22;27262;-35.248;149.138;2022-09-27T16:53:04;19.30;63.70
41533;DHT22;27262;-35.248;149.138;2022-09-27T16:55:35;19.30;63.70
41533;DHT22;27262;-35.248;149.138;2022-09-27T16:58:05;19.30;63.70
41533;DHT22;27262;-35.248;149.138;2022-09-27T17:00:37;19.30;63.80
41533;DHT22;27262;-35.248;149.138;2022-09-27T17:03:09;19.30;63.70
41533;DHT22;27262;-35.248;149.138;2022-09-27T17:05:39;19.30;64.50
41533;DHT22;27262;-35.248;149.138;2022-09-27T17:08:09;19.30;63.80
41533;DHT22;27262;-35.248;149.138;2022-09-27T17:10:43;19.30;63.80
41533;DHT22;27262;-35.248;149.138;2022-09-27T17:13:14;19.30;63.80
41533;DHT22;27262;-35.248;149.138;2022-09-27T17:15:44;19.30;63.80
41533;DHT22;27262;-35.248;149.138;2022-09-27T17:18:14;19.30;63.80
41533;DHT22;27262;-35.248;149.138;2022-09-27T17:20:45;19.30;63.80
41533;DHT22;27262;-35.248;149.138;2022-09-27T17:23:16;19.30;63.80
41533;DHT22;27262;-35.248;149.138;2022-09-27T17:25:46;19.30;63.80
41533;DHT22;27262;-35.248;149.138;2022-09-27T17:28:16;19.20;63.70
41533;DHT22;27262;-35.248;149.138;2022-09-27T17:30:47;19.20;63.80
41533;DHT22;27262;-35.248;149.138;2022-09-27T17:33:17;19.20;63.80
41533;DHT22;27262;-35.248;149.138;2022-09-27T17:35:58;19.20;63.80
41533;DHT22;27262;-35.248;149.138;2022-09-27T17:38:29;19.20;63.70
41533;DHT22;27262;-35.248;149.138;2022-09-27T17:41:22;19.20;63.80
41533;DHT22;27262;-35.248;149.138;2022-09-27T17:43:57;19.20;63.80
41533;DHT22;27262;-35.248;149.138;2022-09-27T17:46:34;19.20;63.90
41533;DHT22;27262;-35.248;149.138;2022-09-27T17:49:04;19.20;63.90
41533;DHT22;27262;-35.248;149.138;2022-09-27T17:51:53;19.10;63.90
41533;DHT22;27262;-35.248;149.138;2022-09-27T17:54:24;19.10;63.80
41533;DHT22;27262;-35.248;149.138;2022-09-27T17:56:56;19.10;63.80
41533;DHT22;27262;-35.248;149.138;2022-09-27T17:59:26;19.10;63.80
41533;DHT22;27262;-35.248;149.138;2022-09-27T18:01:56;19.10;63.90
41533;DHT22;27262;-35.248;149.138;2022-09-27T18:04:27;19.10;63.80
41533;DHT22;27262;-35.248;149.138;2022-09-27T18:06:57;19.10;63.90
41533;DHT22;27262;-35.248;149.138;2022-09-27T18:09:27;19.10;63.90
41533;DHT22;27262;-35.248;149.138;2022-09-27T18:11:57;19.10;63.90
41533;DHT22;27262;-35.248;149.138;2022-09-27T18:14:28;19.10;63.90
41533;DHT22;27262;-35.248;149.138;2022-09-27T18:16:58;19.10;63.90
41533;DHT22;27262;-35.248;149.138;2022-09-27T18:19:29;19.10;63.90
41533;DHT22;27262;-35.248;149.138;2022-09-27T18:21:59;19.00;63.80
41533;DHT22;27262;-35.248;149.138;2022-09-27T18:24:29;19.00;63.90
41533;DHT22;27262;-35.248;149.138;2022-09-27T18:27:00;19.00;63.90
41533;DHT22;27262;-35.248;149.138;2022-09-27T18:29:31;19.00;63.90
41533;DHT22;27262;-35.248;149.138;2022-09-27T18:32:02;19.00;63.90